Clyde Township, Michigan
Current Conditions -  °F | °C
As of 10:57 PM on Friday 28 Nov 2014 (Local Time) from KPHN Reporting Station
Light Snow Light Snow  
Wind Chill: 27°   Ceiling: 3100
Heat Index: 27°   Visibility: 3mi
Dew Point: 25°   Wind: 3mph
Humidity: 93%   Direction: 150°SSE
Pressure: 30.13"   Gusts: NA
Location:  43.0355°N, 82.5759°W
Report Text: KPHN 290357Z AUTO 15003KT 3SM -SN OVC031 M03/M04 A3013 RMK AO2
Loading
Personal Weather Stations






























Interactive Weather Map New forecast layout! Learn more

10-Day Weather Forecast

Advertisements
Track Severe Weather on mobile